Terminal Aerodrome Forecast
Issued by NWS

Home | Current Version | Previous Version | Text Only | Print | Product List | Glossary On
Versions: 1 2 3 4 5 6 7 8 9 10 11 12 13 14
677
FTUS45 KTFX 211123
TAFLWT
TAF
KLWT 211123Z 2112/2212 VRB05KT P6SM SCT060 BKN200 PROB30 2202/2206
      6SM -RA OVC060
     FM220600 07007KT P6SM -RA BKN040 OVC050
     FM221000 05007KT 6SM -RA SCT008 OVC015=

USA.gov is the U.S. government's official web portal to all federal, state and local government web resources and services.